Time;durP1;ratioP1;P1;durP2;ratioP2;P2;SDS_P1;SDS_P2;PMS_P1;PMS_P2;Temp;Humidity;BMP_temperature;BMP_pressure;BME280_temperature;BME280_humidity;BME280_pressure;Samples;Min_cycle;Max_cycle;Signal;HPM_P1;HPM_P2
2022/01/13 00:01:57;;;;;;;12.70;8.82;;;10.70;77.80;;;;;;5058032;28;20025;-49
2022/01/13 00:04:23;;;;;;;13.85;9.25;;;10.70;77.50;;;;;;5058153;28;20032;-49
2022/01/13 00:06:50;;;;;;;14.02;9.45;;;10.70;77.70;;;;;;5058209;28;20017;-48
2022/01/13 00:09:17;;;;;;;14.43;9.40;;;10.70;77.80;;;;;;5058375;28;20082;-51
2022/01/13 00:11:46;;;;;;;13.50;9.15;;;10.70;76.80;;;;;;5058153;28;20021;-50
2022/01/13 00:17:09;;;;;;;13.40;9.07;;;10.70;77.40;;;;;;5056728;28;20025;-50
2022/01/13 00:24:41;;;;;;;12.98;8.70;;;10.70;77.90;;;;;;5057537;28;20040;-49
2022/01/13 00:27:11;;;;;;;13.68;8.90;;;10.70;77.80;;;;;;5057827;28;20033;-48
2022/01/13 00:29:41;;;;;;;14.52;9.65;;;10.70;77.70;;;;;;5057378;28;20032;-50
2022/01/13 00:32:08;;;;;;;13.43;9.00;;;10.70;77.40;;;;;;5058295;28;20083;-50
2022/01/13 00:34:34;;;;;;;13.55;9.48;;;10.70;77.70;;;;;;5057618;28;20395;-51
2022/01/13 00:37:00;;;;;;;12.98;8.55;;;10.70;77.30;;;;;;5057838;28;20024;-50
2022/01/13 00:39:26;;;;;;;17.27;11.77;;;10.70;77.50;;;;;;5057720;28;20051;-50
2022/01/13 00:41:52;;;;;;;17.35;11.55;;;10.70;77.60;;;;;;5057599;28;20579;-49
2022/01/13 00:44:20;;;;;;;17.58;11.98;;;10.70;77.40;;;;;;5057483;28;20047;-48
2022/01/13 00:46:56;;;;;;;17.70;11.50;;;10.70;77.70;;;;;;5057570;28;20036;-51
2022/01/13 00:49:22;;;;;;;17.50;9.98;;;10.70;77.70;;;;;;5057544;28;20021;-50
2022/01/13 00:51:48;;;;;;;15.18;10.13;;;10.70;77.70;;;;;;5057614;28;20021;-49
2022/01/13 00:54:14;;;;;;;13.45;8.80;;;10.70;77.70;;;;;;5057253;28;20079;-49
2022/01/13 00:56:41;;;;;;;15.20;10.52;;;10.70;77.60;;;;;;5057441;28;20075;-48
2022/01/13 00:59:09;;;;;;;14.48;9.38;;;10.70;77.40;;;;;;5057552;28;20035;-48
2022/01/13 01:01:43;;;;;;;17.23;11.20;;;10.80;77.20;;;;;;5057224;28;20431;-48
2022/01/13 01:04:09;;;;;;;14.13;9.32;;;10.80;77.20;;;;;;5057578;28;20036;-48
2022/01/13 01:06:36;;;;;;;15.02;10.10;;;10.70;77.00;;;;;;5057184;28;20075;-50
2022/01/13 01:09:04;;;;;;;17.65;10.00;;;10.70;77.20;;;;;;5057131;28;20521;-51
2022/01/13 01:11:29;;;;;;;14.18;10.15;;;10.70;77.40;;;;;;5057196;28;20052;-50
2022/01/13 01:13:58;;;;;;;14.48;9.20;;;10.80;76.70;;;;;;5057588;28;20029;-48
2022/01/13 01:16:26;;;;;;;13.88;9.48;;;10.70;77.00;;;;;;5057250;28;20032;-51
2022/01/13 01:19:00;;;;;;;16.15;10.20;;;10.60;77.40;;;;;;5057099;28;20029;-50
2022/01/13 01:31:34;;;;;;;12.90;8.50;;;10.60;76.40;;;;;;5060716;28;20025;-50
2022/01/13 01:36:35;;;;;;;12.70;8.68;;;10.50;76.00;;;;;;5060961;28;20035;-49
2022/01/13 01:39:02;;;;;;;15.43;10.23;;;10.50;76.20;;;;;;5060617;28;20017;-50
2022/01/13 01:41:28;;;;;;;16.23;9.38;;;10.50;75.50;;;;;;5060746;28;20029;-48
2022/01/13 01:44:00;;;;;;;14.70;9.07;;;10.50;75.70;;;;;;5059877;28;20058;-53
2022/01/13 01:46:26;;;;;;;16.25;10.25;;;10.50;75.70;;;;;;5060310;28;20048;-51
2022/01/13 01:48:53;;;;;;;14.88;9.95;;;10.50;75.30;;;;;;5060189;28;20416;-51
2022/01/13 01:51:18;;;;;;;15.57;9.82;;;10.40;75.20;;;;;;5060353;28;20025;-52
2022/01/13 01:53:44;;;;;;;14.80;9.20;;;10.40;75.50;;;;;;5060332;28;20024;-49
2022/01/13 01:56:10;;;;;;;13.75;9.45;;;10.40;75.60;;;;;;5060254;28;20033;-49
2022/01/13 01:58:37;;;;;;;13.48;8.90;;;10.40;75.70;;;;;;5060566;28;20028;-49
2022/01/13 02:01:03;;;;;;;15.52;10.38;;;10.40;74.30;;;;;;5060463;28;20029;-52
2022/01/13 02:03:30;;;;;;;14.82;9.85;;;10.40;73.40;;;;;;5060140;28;20020;-49
2022/01/13 02:05:56;;;;;;;13.55;9.15;;;10.30;73.90;;;;;;5060080;28;20040;-48
2022/01/13 02:08:22;;;;;;;13.52;8.75;;;10.20;74.30;;;;;;5060244;28;20029;-52
2022/01/13 02:10:48;;;;;;;12.18;8.80;;;10.00;73.50;;;;;;5060024;28;20021;-51
2022/01/13 02:13:21;;;;;;;13.13;8.35;;;9.90;73.70;;;;;;5059994;28;20031;-51
2022/01/13 02:16:02;;;;;;;14.50;9.30;;;9.80;74.00;;;;;;5059931;28;20024;-53
2022/01/13 02:18:33;;;;;;;13.48;8.30;;;9.70;74.10;;;;;;5059857;28;20100;-48
2022/01/13 02:21:01;;;;;;;12.80;7.75;;;9.60;74.40;;;;;;5059799;28;20108;-48
2022/01/13 02:23:37;;;;;;;12.57;8.40;;;9.50;74.40;;;;;;5059799;28;20060;-51
2022/01/13 02:26:05;;;;;;;13.30;8.38;;;9.50;74.40;;;;;;5060017;28;20104;-48
2022/01/13 02:28:31;;;;;;;12.52;7.47;;;9.40;75.00;;;;;;5059690;28;20139;-51
2022/01/13 02:30:58;;;;;;;12.90;8.18;;;9.30;74.80;;;;;;5059776;28;20021;-51
2022/01/13 02:33:24;;;;;;;12.65;8.02;;;9.20;74.90;;;;;;5059673;28;20407;-48
2022/01/13 02:35:50;;;;;;;12.18;8.38;;;9.20;75.20;;;;;;5059763;28;20029;-51
2022/01/13 02:38:16;;;;;;;12.23;8.15;;;9.10;75.30;;;;;;5059303;28;20035;-50
2022/01/13 02:40:42;;;;;;;15.05;8.88;;;9.00;75.40;;;;;;5058992;28;20100;-48
2022/01/13 02:43:08;;;;;;;12.00;8.10;;;9.00;75.50;;;;;;5059715;28;20537;-50
2022/01/13 02:45:38;;;;;;;13.73;7.97;;;8.90;75.60;;;;;;5059295;28;20025;-50
2022/01/13 02:50:52;;;;;;;11.55;7.53;;;8.80;75.60;;;;;;5059076;28;20022;-49
2022/01/13 02:53:18;;;;;;;13.20;7.63;;;8.70;75.50;;;;;;5059159;28;20030;-48
2022/01/13 02:55:43;;;;;;;10.45;7.10;;;8.70;75.70;;;;;;5059315;28;20453;-48
2022/01/13 02:58:13;;;;;;;12.48;7.32;;;8.60;75.70;;;;;;5059133;28;20028;-48
2022/01/13 03:00:40;;;;;;;12.95;7.70;;;8.60;75.90;;;;;;5059194;28;20032;-48
2022/01/13 03:03:05;;;;;;;12.63;7.97;;;8.50;76.10;;;;;;5058946;28;20021;-49
2022/01/13 03:05:36;;;;;;;13.23;8.55;;;8.40;76.20;;;;;;5059026;28;20029;-51
2022/01/13 03:08:02;;;;;;;15.32;10.05;;;8.40;76.40;;;;;;5058923;28;20021;-51
2022/01/13 03:10:28;;;;;;;15.10;9.85;;;8.40;76.20;;;;;;5059025;28;20078;-52
2022/01/13 03:12:56;;;;;;;17.05;10.80;;;8.40;77.00;;;;;;5059013;28;20025;-51
2022/01/13 03:15:22;;;;;;;14.65;9.23;;;8.40;77.00;;;;;;5057377;28;20064;-50
2022/01/13 03:17:47;;;;;;;14.55;9.63;;;8.40;77.50;;;;;;5058727;28;20021;-50
2022/01/13 03:20:13;;;;;;;14.20;9.57;;;8.50;76.80;;;;;;5058677;28;20463;-50
2022/01/13 03:22:39;;;;;;;13.50;8.48;;;8.60;77.20;;;;;;5059018;28;20028;-53
2022/01/13 03:25:06;;;;;;;13.50;7.88;;;8.60;77.00;;;;;;5058968;28;20143;-51
2022/01/13 03:27:35;;;;;;;11.68;8.05;;;8.60;76.80;;;;;;5058617;28;20024;-51
2022/01/13 03:30:06;;;;;;;13.23;8.02;;;8.70;76.80;;;;;;5058484;28;20036;-48
2022/01/13 03:32:33;;;;;;;15.95;8.60;;;8.70;76.70;;;;;;5058287;28;20522;-49
2022/01/13 03:34:59;;;;;;;11.43;7.93;;;8.60;76.50;;;;;;5058371;28;20028;-50
2022/01/13 03:37:26;;;;;;;12.68;8.07;;;8.70;76.70;;;;;;5058139;28;20025;-50
2022/01/13 03:39:52;;;;;;;14.18;8.68;;;8.70;76.50;;;;;;5058364;28;20468;-50
2022/01/13 03:42:18;;;;;;;13.07;8.15;;;8.70;76.40;;;;;;5058476;28;20029;-50
2022/01/13 03:44:43;;;;;;;13.40;8.27;;;8.60;75.90;;;;;;5058239;28;20385;-48
2022/01/13 03:47:09;;;;;;;12.82;8.18;;;8.50;75.90;;;;;;5058436;28;20397;-49
2022/01/13 03:49:35;;;;;;;12.75;8.02;;;8.50;76.00;;;;;;5058083;28;20032;-53
2022/01/13 03:52:13;;;;;;;12.80;8.13;;;8.40;76.10;;;;;;5058141;28;20095;-48
2022/01/13 03:54:39;;;;;;;12.10;7.80;;;8.30;75.80;;;;;;5058209;28;20455;-50
2022/01/13 03:57:43;;;;;;;12.50;7.57;;;8.20;76.10;;;;;;5058054;28;20051;-53
2022/01/13 04:00:47;;;;;;;15.05;8.57;;;8.10;76.10;;;;;;5057915;28;20032;-49
2022/01/13 04:03:13;;;;;;;13.35;8.23;;;8.10;76.10;;;;;;5057877;28;20391;-49
2022/01/13 04:05:59;;;;;;;13.35;8.43;;;7.90;76.40;;;;;;5058233;28;20108;-50
2022/01/13 04:08:24;;;;;;;13.13;8.88;;;7.90;76.20;;;;;;5057948;28;20075;-50
2022/01/13 04:11:11;;;;;;;13.52;8.07;;;7.80;76.20;;;;;;5058225;28;20029;-48
2022/01/13 04:16:12;;;;;;;13.57;7.32;;;7.70;76.30;;;;;;5057849;28;20104;-49
2022/01/13 04:18:38;;;;;;;13.00;7.32;;;7.70;76.30;;;;;;5057614;28;20049;-49
2022/01/13 04:21:04;;;;;;;13.60;8.32;;;7.60;76.60;;;;;;5057414;28;20060;-48
2022/01/13 04:23:31;;;;;;;12.43;8.25;;;7.60;76.70;;;;;;5057648;28;20025;-49
2022/01/13 04:25:57;;;;;;;14.55;9.00;;;7.50;76.90;;;;;;5057444;28;20385;-51
2022/01/13 04:28:27;;;;;;;14.93;8.93;;;7.50;77.50;;;;;;5057220;28;20033;-51
2022/01/13 04:31:00;;;;;;;16.15;9.70;;;7.50;77.80;;;;;;5057429;28;20029;-50
2022/01/13 04:33:30;;;;;;;15.77;9.57;;;7.50;78.10;;;;;;5057613;28;20029;-51
2022/01/13 04:35:56;;;;;;;14.90;10.10;;;7.50;78.30;;;;;;5057336;28;20089;-47
2022/01/13 04:38:22;;;;;;;16.95;11.57;;;7.60;78.70;;;;;;5057354;28;20514;-48
2022/01/13 04:40:54;;;;;;;19.70;12.55;;;7.70;79.10;;;;;;5057736;28;20036;-50
2022/01/13 04:43:21;;;;;;;17.08;10.80;;;7.70;79.10;;;;;;5057278;28;20163;-52
2022/01/13 04:45:47;;;;;;;17.38;10.82;;;7.80;79.20;;;;;;5057113;28;20377;-48
2022/01/13 04:48:14;;;;;;;18.67;11.07;;;7.90;79.00;;;;;;5057030;28;20021;-50
2022/01/13 04:50:40;;;;;;;16.25;11.23;;;8.00;78.60;;;;;;5057090;28;20584;-49
2022/01/13 04:53:07;;;;;;;16.40;10.73;;;8.00;78.70;;;;;;5057227;28;20071;-52
2022/01/13 04:55:35;;;;;;;20.13;12.10;;;8.10;78.70;;;;;;5057387;28;20040;-52
2022/01/13 04:58:01;;;;;;;16.63;10.30;;;8.20;78.30;;;;;;5057464;28;20028;-48
2022/01/13 05:00:29;;;;;;;17.42;10.77;;;8.20;78.30;;;;;;5057311;28;20567;-52
2022/01/13 05:02:55;;;;;;;16.15;10.80;;;8.20;78.00;;;;;;5059007;28;20055;-49
2022/01/13 05:05:21;;;;;;;17.02;10.38;;;8.20;78.00;;;;;;5061746;28;20480;-48
2022/01/13 05:07:47;;;;;;;19.02;10.75;;;8.20;78.00;;;;;;5061507;28;20021;-49
2022/01/13 05:10:13;;;;;;;16.45;11.32;;;8.20;77.70;;;;;;5061486;28;20052;-48
2022/01/13 05:12:44;;;;;;;17.45;10.70;;;8.30;77.60;;;;;;5061184;28;20025;-51
2022/01/13 05:15:22;;;;;;;18.55;10.57;;;8.20;77.40;;;;;;5061107;28;20350;-49
2022/01/13 05:20:27;;;;;;;15.10;10.00;;;8.20;77.80;;;;;;5060930;28;20045;-49
2022/01/13 05:22:53;;;;;;;17.45;10.73;;;8.20;77.10;;;;;;5060966;28;20032;-50
2022/01/13 05:25:21;;;;;;;18.95;11.52;;;8.20;77.20;;;;;;5060834;28;20435;-49
2022/01/13 05:27:47;;;;;;;19.50;11.38;;;8.20;77.50;;;;;;5061153;28;20017;-50
2022/01/13 05:30:16;;;;;;;17.30;11.10;;;8.10;77.80;;;;;;5061105;28;20021;-50
2022/01/13 05:32:43;;;;;;;16.27;10.88;;;8.10;77.80;;;;;;5060896;28;20070;-52
2022/01/13 05:35:10;;;;;;;17.50;11.82;;;8.10;78.20;;;;;;5060944;28;20093;-48
2022/01/13 05:37:35;;;;;;;18.10;12.18;;;8.10;77.60;;;;;;5061155;28;20075;-50
2022/01/13 05:40:02;;;;;;;19.02;11.48;;;8.10;77.70;;;;;;5060973;28;20029;-48
2022/01/13 05:42:27;;;;;;;19.23;12.57;;;8.10;77.60;;;;;;5060776;28;20020;-48
2022/01/13 05:44:55;;;;;;;19.05;12.68;;;8.10;77.50;;;;;;5061006;28;20054;-51
2022/01/13 05:47:21;;;;;;;20.67;12.00;;;8.00;77.90;;;;;;5060827;28;20028;-48
2022/01/13 05:49:48;;;;;;;20.95;11.77;;;8.00;77.20;;;;;;5060373;28;20029;-50
2022/01/13 05:52:14;;;;;;;19.30;10.85;;;8.00;77.00;;;;;;5060909;28;20056;-51
2022/01/13 05:54:41;;;;;;;18.33;11.65;;;7.90;77.30;;;;;;5060505;28;20025;-49
2022/01/13 05:57:07;;;;;;;16.20;10.88;;;7.90;77.20;;;;;;5060409;28;20085;-51
2022/01/13 05:59:33;;;;;;;17.10;10.85;;;7.90;77.00;;;;;;5060382;28;20029;-52
2022/01/13 06:01:59;;;;;;;18.30;11.57;;;7.80;77.00;;;;;;5060231;28;20021;-52
2022/01/13 06:04:25;;;;;;;18.50;11.20;;;7.70;76.90;;;;;;5060356;28;20370;-48
2022/01/13 06:06:51;;;;;;;18.08;11.38;;;7.70;76.80;;;;;;5060462;28;20158;-49
2022/01/13 06:09:18;;;;;;;16.70;11.02;;;7.60;76.80;;;;;;5060159;28;20433;-49
2022/01/13 06:11:54;;;;;;;16.50;9.73;;;7.60;76.80;;;;;;5060355;28;20025;-49
2022/01/13 06:14:20;;;;;;;16.33;10.40;;;7.50;76.70;;;;;;5059576;28;20040;-50
2022/01/13 06:16:46;;;;;;;16.33;10.02;;;7.40;76.50;;;;;;5060158;28;20025;-48
2022/01/13 06:19:12;;;;;;;17.20;10.20;;;7.40;76.80;;;;;;5059791;28;20036;-52
2022/01/13 06:21:38;;;;;;;16.95;10.35;;;7.30;76.90;;;;;;5059573;28;20126;-48
2022/01/13 06:24:04;;;;;;;17.63;9.98;;;7.30;76.80;;;;;;5060148;28;20021;-49
2022/01/13 06:26:30;;;;;;;15.85;10.02;;;7.30;76.80;;;;;;5059888;28;20104;-51
2022/01/13 06:28:55;;;;;;;17.15;9.98;;;7.30;76.90;;;;;;5059669;28;20056;-50
2022/01/13 06:31:21;;;;;;;17.83;11.38;;;7.30;77.20;;;;;;5059963;28;20040;-50
2022/01/13 06:33:47;;;;;;;17.13;11.10;;;7.30;76.90;;;;;;5059654;28;20113;-48
2022/01/13 06:36:13;;;;;;;17.35;10.27;;;7.40;77.30;;;;;;5059633;28;20033;-49
2022/01/13 06:38:38;;;;;;;15.77;10.82;;;7.40;77.40;;;;;;5059480;28;20017;-50
2022/01/13 06:41:04;;;;;;;16.67;11.13;;;7.50;77.00;;;;;;5058062;28;20025;-52
2022/01/13 06:43:31;;;;;;;15.88;11.35;;;7.50;76.40;;;;;;5058071;28;20025;-48
2022/01/13 06:45:57;;;;;;;17.15;10.50;;;7.60;76.30;;;;;;5059466;28;20106;-49
2022/01/13 06:48:22;;;;;;;16.98;10.60;;;7.60;75.90;;;;;;5059717;28;20032;-49
2022/01/13 06:50:48;;;;;;;15.13;9.38;;;7.60;76.20;;;;;;5059575;28;20078;-48
2022/01/13 06:53:14;;;;;;;15.18;10.25;;;7.60;75.70;;;;;;5059286;28;20035;-48
2022/01/13 06:55:40;;;;;;;14.52;9.80;;;7.70;75.70;;;;;;5059465;28;20017;-48
2022/01/13 06:58:05;;;;;;;14.88;9.23;;;7.70;75.90;;;;;;5059633;28;20449;-49
2022/01/13 07:00:33;;;;;;;15.10;10.07;;;7.80;75.90;;;;;;5059389;28;20025;-48
2022/01/13 07:03:02;;;;;;;16.45;10.63;;;7.80;76.20;;;;;;5059209;28;20058;-48
2022/01/13 07:05:28;;;;;;;15.15;9.85;;;7.80;75.80;;;;;;5059275;28;20074;-52
2022/01/13 07:07:54;;;;;;;15.10;10.07;;;7.80;75.90;;;;;;5059191;28;20067;-50
2022/01/13 07:10:20;;;;;;;15.10;9.32;;;7.80;76.00;;;;;;5059000;28;20017;-49
2022/01/13 07:12:46;;;;;;;15.00;9.93;;;7.80;75.20;;;;;;5059154;28;20029;-51
2022/01/13 07:15:12;;;;;;;14.82;9.32;;;7.90;75.50;;;;;;5059088;28;20031;-52
2022/01/13 07:17:38;;;;;;;15.60;10.55;;;7.90;75.40;;;;;;5058822;28;20035;-52
2022/01/13 07:20:05;;;;;;;14.90;10.13;;;7.90;75.80;;;;;;5058665;28;20441;-49
2022/01/13 07:22:31;;;;;;;15.23;10.38;;;7.90;75.20;;;;;;5058459;28;20056;-49
2022/01/13 07:24:57;;;;;;;15.25;9.40;;;7.90;75.30;;;;;;5058142;28;20024;-51
2022/01/13 07:27:23;;;;;;;15.30;10.48;;;7.90;75.50;;;;;;5058936;28;20040;-52
2022/01/13 07:29:49;;;;;;;15.00;9.50;;;7.90;75.00;;;;;;5058572;28;20022;-47
2022/01/13 07:32:15;;;;;;;14.60;9.73;;;8.00;74.80;;;;;;5058567;28;20083;-52
2022/01/13 07:34:41;;;;;;;14.68;9.27;;;8.00;74.60;;;;;;5058926;28;20021;-49
2022/01/13 07:37:07;;;;;;;13.43;8.93;;;7.90;74.60;;;;;;5058589;28;20096;-48
2022/01/13 07:39:35;;;;;;;16.58;10.48;;;7.90;74.50;;;;;;5058384;28;20477;-49
2022/01/13 07:42:05;;;;;;;15.35;9.63;;;7.90;74.60;;;;;;5058341;28;20100;-50
2022/01/13 07:44:32;;;;;;;14.65;9.45;;;7.90;74.60;;;;;;5058355;28;20036;-49
2022/01/13 07:46:59;;;;;;;14.13;9.27;;;8.00;75.00;;;;;;5058380;28;20198;-49
2022/01/13 07:49:25;;;;;;;14.65;9.85;;;7.90;75.20;;;;;;5058049;28;20028;-51
2022/01/13 07:51:51;;;;;;;14.75;9.20;;;7.90;74.70;;;;;;5057917;28;20059;-51
2022/01/13 07:54:17;;;;;;;16.52;9.57;;;8.00;74.40;;;;;;5058587;28;20030;-50
2022/01/13 07:56:43;;;;;;;13.80;9.10;;;7.90;74.60;;;;;;5058274;28;20029;-52
2022/01/13 07:59:08;;;;;;;15.45;9.32;;;8.00;74.70;;;;;;5058121;28;20052;-49
2022/01/13 08:01:34;;;;;;;13.82;8.93;;;7.90;74.70;;;;;;5058077;28;20035;-48
2022/01/13 08:04:00;;;;;;;13.82;9.75;;;8.00;74.50;;;;;;5058157;28;20108;-48
2022/01/13 08:06:26;;;;;;;14.73;9.25;;;8.00;74.10;;;;;;5057157;28;20025;-51
2022/01/13 08:08:52;;;;;;;14.25;8.60;;;7.90;73.80;;;;;;5057839;28;20021;-49
2022/01/13 08:11:18;;;;;;;13.18;8.15;;;7.90;73.70;;;;;;5057983;28;20078;-48
2022/01/13 08:13:45;;;;;;;14.27;9.27;;;7.90;73.80;;;;;;5057965;28;20052;-48
2022/01/13 08:16:12;;;;;;;14.10;9.18;;;7.90;73.80;;;;;;5057685;28;20033;-51
2022/01/13 08:21:24;;;;;;;12.43;9.07;;;7.90;74.00;;;;;;5057602;28;20084;-48
2022/01/13 08:23:51;;;;;;;14.50;9.00;;;7.90;73.90;;;;;;5057508;28;20108;-48
2022/01/13 08:26:18;;;;;;;14.05;9.35;;;7.90;73.60;;;;;;5057403;28;20040;-48
2022/01/13 08:28:43;;;;;;;14.40;9.30;;;7.80;73.40;;;;;;5057568;28;20395;-48
2022/01/13 08:31:09;;;;;;;14.82;9.95;;;7.80;73.40;;;;;;5057505;28;20099;-48
2022/01/13 08:33:35;;;;;;;13.25;9.27;;;7.80;73.50;;;;;;5057658;28;20025;-48
2022/01/13 08:36:02;;;;;;;14.35;9.50;;;7.80;73.50;;;;;;5057405;28;20445;-48
2022/01/13 08:38:27;;;;;;;14.63;9.90;;;7.80;73.70;;;;;;5056512;28;20108;-48
2022/01/13 08:40:59;;;;;;;18.30;9.60;;;7.80;74.30;;;;;;5057571;28;20067;-47
2022/01/13 08:43:27;;;;;;;15.70;9.98;;;7.80;73.80;;;;;;5055810;28;20032;-48
2022/01/13 08:45:53;;;;;;;13.68;9.45;;;7.80;73.70;;;;;;5057554;28;20065;-48
2022/01/13 08:48:19;;;;;;;15.75;10.02;;;7.90;73.80;;;;;;5057205;28;20019;-48
2022/01/13 08:50:46;;;;;;;16.40;10.32;;;8.00;73.90;;;;;;5057236;28;20028;-48
2022/01/13 08:53:16;;;;;;;15.25;10.68;;;8.10;73.80;;;;;;5057166;28;20028;-51
2022/01/13 08:55:42;;;;;;;16.70;10.50;;;8.10;73.00;;;;;;5057293;28;20081;-49
2022/01/13 08:58:08;;;;;;;17.30;10.57;;;8.10;73.40;;;;;;5057111;28;20459;-49
2022/01/13 09:00:36;;;;;;;15.48;10.48;;;8.20;73.50;;;;;;5057133;28;20017;-50
2022/01/13 09:03:07;;;;;;;14.43;10.00;;;8.30;73.70;;;;;;5057001;28;20129;-49
2022/01/13 09:05:34;;;;;;;17.35;11.38;;;8.40;73.60;;;;;;5057377;28;20116;-50
2022/01/13 09:08:02;;;;;;;15.93;11.25;;;8.60;73.00;;;;;;5056888;28;20025;-49
2022/01/13 09:10:28;;;;;;;15.88;10.18;;;8.80;73.60;;;;;;5057292;28;20064;-49
2022/01/13 09:12:54;;;;;;;15.07;10.23;;;9.30;74.10;;;;;;5057263;28;20021;-48
2022/01/13 09:15:32;;;;;;;15.90;10.88;;;9.60;72.00;;;;;;5057086;28;20036;-48
2022/01/13 09:18:06;;;;;;;14.57;9.77;;;9.70;71.00;;;;;;5056873;28;20470;-48
2022/01/13 09:20:32;;;;;;;16.85;9.98;;;9.80;71.30;;;;;;5056841;28;20124;-49
2022/01/13 09:22:58;;;;;;;14.63;9.45;;;9.90;70.70;;;;;;5057022;28;20074;-51
2022/01/13 09:25:23;;;;;;;13.63;9.55;;;9.90;70.40;;;;;;5057232;28;20025;-49
2022/01/13 09:27:49;;;;;;;13.88;10.35;;;9.80;70.40;;;;;;5056751;28;20017;-49
2022/01/13 09:30:15;;;;;;;13.95;8.98;;;9.90;69.70;;;;;;5057038;28;20035;-48
2022/01/13 09:32:41;;;;;;;15.07;9.63;;;9.90;69.40;;;;;;5056765;28;20029;-50
2022/01/13 09:35:08;;;;;;;13.25;9.27;;;10.00;68.80;;;;;;5056590;28;20036;-49
2022/01/13 09:37:35;;;;;;;14.02;10.18;;;10.20;69.50;;;;;;5055920;28;20032;-50
2022/01/13 09:40:02;;;;;;;13.20;9.40;;;10.60;68.80;;;;;;5054673;28;20021;-50
2022/01/13 09:42:32;;;;;;;14.43;10.18;;;11.00;68.50;;;;;;5054727;28;20029;-50
2022/01/13 09:45:00;;;;;;;13.45;9.43;;;11.40;67.70;;;;;;5054760;28;20116;-49
2022/01/13 09:47:26;;;;;;;13.00;9.23;;;11.60;68.00;;;;;;5054781;28;20041;-51
2022/01/13 09:49:52;;;;;;;12.80;9.75;;;11.60;66.20;;;;;;5058384;28;20020;-50
2022/01/13 09:52:20;;;;;;;14.57;10.55;;;11.50;66.00;;;;;;5059615;28;20021;-49
2022/01/13 09:54:47;;;;;;;13.65;9.52;;;11.30;67.60;;;;;;5060329;28;20481;-49
2022/01/13 09:57:13;;;;;;;13.27;9.45;;;11.10;66.30;;;;;;5060758;28;20028;-49
2022/01/13 09:59:39;;;;;;;16.02;10.20;;;11.00;66.90;;;;;;5060257;28;20021;-49
2022/01/13 10:02:05;;;;;;;13.82;9.88;;;10.80;67.50;;;;;;5060506;28;20507;-48
2022/01/13 10:04:48;;;;;;;12.60;9.63;;;10.70;67.70;;;;;;5060391;28;20037;-48
2022/01/13 10:07:29;;;;;;;13.70;9.75;;;10.70;67.00;;;;;;5060622;28;20041;-51
2022/01/13 10:09:57;;;;;;;13.48;9.38;;;10.70;67.40;;;;;;5060357;28;20052;-50
2022/01/13 10:12:31;;;;;;;13.25;9.20;;;10.80;67.70;;;;;;5060018;28;20079;-50
2022/01/13 10:17:29;;;;;;;13.85;9.50;;;11.30;67.60;;;;;;5059801;28;20025;-48
2022/01/13 10:19:57;;;;;;;13.48;9.18;;;11.70;67.60;;;;;;5059727;28;20017;-48
2022/01/13 10:22:32;;;;;;;12.98;9.32;;;12.10;67.00;;;;;;5059642;28;20048;-51
2022/01/13 10:24:58;;;;;;;12.98;9.25;;;12.80;66.50;;;;;;5059629;28;20452;-51
2022/01/13 10:27:33;;;;;;;13.02;8.43;;;13.10;64.90;;;;;;5059509;28;20389;-51
2022/01/13 10:30:04;;;;;;;;;;;13.70;64.70;;;;;;5060203;28;20029;-49
2022/01/13 10:32:37;;;;;;;12.45;8.55;;;14.20;65.30;;;;;;5059628;28;19904;-50
2022/01/13 10:35:12;;;;;;;11.90;8.90;;;14.60;63.30;;;;;;5059426;28;20392;-49
2022/01/13 10:37:42;;;;;;;11.93;8.55;;;15.10;63.20;;;;;;5059467;28;20035;-51
2022/01/13 10:40:15;;;;;;;12.18;8.57;;;15.50;61.10;;;;;;5059050;28;20461;-50
2022/01/13 10:43:06;;;;;;;11.88;8.60;;;16.00;61.70;;;;;;5059490;28;20021;-49
2022/01/13 10:45:35;;;;;;;11.20;8.70;;;16.70;62.50;;;;;;5059416;28;20029;-49
2022/01/13 10:48:11;;;;;;;11.40;8.10;;;17.60;62.40;;;;;;5059737;28;20508;-50
2022/01/13 10:50:54;;;;;;;11.25;8.50;;;18.20;61.40;;;;;;5059577;28;20033;-49
2022/01/13 10:53:26;;;;;;;12.35;8.52;;;18.70;58.50;;;;;;5059411;28;20035;-49
2022/01/13 10:56:00;;;;;;;13.13;8.30;;;19.00;56.60;;;;;;5059574;28;20021;-51
2022/01/13 10:58:32;;;;;;;9.93;7.78;;;19.30;55.90;;;;;;5058599;28;20025;-53
2022/01/13 11:00:59;;;;;;;10.32;8.02;;;19.70;59.00;;;;;;5058264;28;20037;-51
2022/01/13 11:03:30;;;;;;;10.73;8.18;;;19.80;52.90;;;;;;5058959;28;20048;-51
2022/01/13 11:06:02;;;;;;;10.93;8.13;;;20.10;52.30;;;;;;5059259;28;20025;-49
2022/01/13 11:08:40;;;;;;;10.38;7.53;;;20.60;57.70;;;;;;5059378;28;20020;-49
2022/01/13 11:11:06;;;;;;;10.70;7.80;;;20.80;52.90;;;;;;5058911;28;20027;-49
2022/01/13 11:13:38;;;;;;;10.57;7.70;;;20.70;48.40;;;;;;5058972;28;20025;-52
2022/01/13 11:16:05;;;;;;;9.40;7.75;;;20.90;53.20;;;;;;5058723;28;20020;-51
2022/01/13 11:18:33;;;;;;;10.90;7.72;;;21.40;50.80;;;;;;5058804;28;20473;-53
2022/01/13 11:21:01;;;;;;;10.68;7.78;;;21.70;50.10;;;;;;5058693;28;20124;-50
2022/01/13 11:23:27;;;;;;;10.40;7.68;;;21.80;45.80;;;;;;5058398;28;20064;-49
2022/01/13 11:25:55;;;;;;;11.10;8.27;;;22.10;52.60;;;;;;5058604;28;20024;-51
2022/01/13 11:28:22;;;;;;;10.00;8.07;;;22.40;48.40;;;;;;5058159;28;20100;-51
2022/01/13 11:30:50;;;;;;;9.32;6.93;;;22.60;46.60;;;;;;5058340;28;20508;-51
2022/01/13 11:33:17;;;;;;;9.77;7.80;;;22.80;46.60;;;;;;5058550;28;20035;-51
2022/01/13 11:35:49;;;;;;;9.63;7.80;;;23.30;49.90;;;;;;5058450;28;20039;-51
2022/01/13 11:38:18;;;;;;;9.90;7.47;;;23.40;46.80;;;;;;5058364;28;20040;-50
2022/01/13 11:40:48;;;;;;;12.65;7.93;;;23.40;43.60;;;;;;5058492;28;20028;-49
2022/01/13 11:43:32;;;;;;;9.38;7.07;;;23.40;43.30;;;;;;5058395;28;20461;-50
2022/01/13 11:46:12;;;;;;;9.25;6.75;;;23.50;42.60;;;;;;5058328;28;20035;-53
2022/01/13 11:48:42;;;;;;;7.70;6.25;;;23.30;41.30;;;;;;5058395;28;20025;-51
2022/01/13 11:51:18;;;;;;;9.65;7.13;;;23.40;44.70;;;;;;5058612;28;20025;-51
2022/01/13 11:53:59;;;;;;;8.63;6.80;;;23.80;42.20;;;;;;5056810;28;20025;-51
2022/01/13 11:56:26;;;;;;;9.02;6.93;;;24.40;43.00;;;;;;5058158;28;20060;-54
2022/01/13 11:58:53;;;;;;;8.32;6.55;;;24.50;43.80;;;;;;5057458;28;20021;-54
2022/01/13 12:01:28;;;;;;;8.38;6.45;;;24.60;44.30;;;;;;5057468;28;20503;-54
2022/01/13 12:03:59;;;;;;;8.38;6.45;;;24.70;40.20;;;;;;5057955;28;20021;-54
2022/01/13 12:06:49;;;;;;;9.13;7.50;;;24.90;42.30;;;;;;5057739;28;20025;-54
2022/01/13 12:09:21;;;;;;;8.70;6.32;;;24.90;37.60;;;;;;5057965;28;20013;-52
2022/01/13 12:11:51;;;;;;;9.70;6.13;;;24.80;37.20;;;;;;5057774;28;20035;-52
2022/01/13 12:14:23;;;;;;;8.02;5.75;;;24.70;42.00;;;;;;5057499;28;20139;-56
2022/01/13 12:17:13;;;;;;;9.38;6.63;;;24.80;44.80;;;;;;5057832;28;20040;-49
2022/01/13 12:19:44;;;;;;;9.07;7.15;;;25.20;40.60;;;;;;5057566;28;20105;-51
2022/01/13 12:22:19;;;;;;;8.23;6.45;;;25.20;41.00;;;;;;5057524;28;20097;-55
2022/01/13 12:24:51;;;;;;;8.60;6.15;;;25.40;39.10;;;;;;5057887;28;20438;-54
2022/01/13 12:27:33;;;;;;;8.88;6.75;;;25.60;39.00;;;;;;5057517;28;20343;-52
2022/01/13 12:30:05;;;;;;;8.90;6.30;;;25.90;38.80;;;;;;5057898;28;20491;-54
2022/01/13 12:32:41;;;;;;;9.05;6.50;;;26.10;40.70;;;;;;5057361;28;20029;-54
2022/01/13 12:35:09;;;;;;;9.38;6.95;;;26.00;40.60;;;;;;5057479;28;20087;-55
2022/01/13 12:37:39;;;;;;;7.97;6.18;;;25.80;37.30;;;;;;5057358;28;20017;-53
2022/01/13 12:40:24;;;;;;;8.43;6.35;;;25.60;37.60;;;;;;5057296;28;20095;-54
2022/01/13 12:42:52;;;;;;;7.90;5.95;;;25.80;38.20;;;;;;5056976;28;20145;-55
2022/01/13 12:45:29;;;;;;;7.70;5.95;;;25.90;38.70;;;;;;5057464;28;20024;-50
2022/01/13 12:48:01;;;;;;;8.80;5.97;;;25.90;38.00;;;;;;5057239;28;20482;-49
2022/01/13 12:50:35;;;;;;;7.82;5.88;;;26.00;35.50;;;;;;5055093;28;20021;-52
2022/01/13 12:53:11;;;;;;;7.82;5.93;;;25.90;36.40;;;;;;5057040;28;20090;-48
2022/01/13 12:55:40;;;;;;;8.85;6.40;;;26.20;35.90;;;;;;5057289;28;20024;-49
2022/01/13 12:58:08;;;;;;;8.93;6.53;;;26.20;38.30;;;;;;5057401;28;20036;-51
2022/01/13 13:00:34;;;;;;;8.07;5.47;;;26.10;38.20;;;;;;5057259;28;20060;-49
2022/01/13 13:03:06;;;;;;;7.50;5.13;;;25.90;36.60;;;;;;5056993;28;20025;-51
2022/01/13 13:05:40;;;;;;;8.40;5.93;;;26.10;37.30;;;;;;5055668;28;20028;-49
2022/01/13 13:08:10;;;;;;;;;;;26.10;39.60;;;;;;5056350;28;20028;-51
2022/01/13 13:10:36;;;;;;;7.25;5.35;;;25.90;36.80;;;;;;5056720;28;19909;-50
2022/01/13 13:13:02;;;;;;;7.97;5.65;;;25.70;35.90;;;;;;5057228;28;20029;-50
2022/01/13 13:17:55;;;;;;;7.43;5.25;;;25.70;36.00;;;;;;5057256;28;20036;-47
2022/01/13 13:20:28;;;;;;;7.88;5.57;;;25.50;37.50;;;;;;5055659;28;20048;-49
2022/01/13 13:22:58;;;;;;;7.90;6.20;;;25.60;37.80;;;;;;5054736;28;20480;-51
2022/01/13 13:25:32;;;;;;;8.40;5.65;;;26.00;37.50;;;;;;5058983;28;20033;-48